createdAt,value
2018-08-24T00:01:49.183Z,19.20
2018-08-24T00:04:23.665Z,19.20
2018-08-24T00:06:57.947Z,19.00
2018-08-24T00:09:32.251Z,18.90
2018-08-24T00:12:06.806Z,18.90
2018-08-24T00:14:41.175Z,18.80
2018-08-24T00:17:20.907Z,18.80
2018-08-24T00:19:55.255Z,18.80
2018-08-24T00:22:29.643Z,18.80
2018-08-24T00:25:04.145Z,18.70
2018-08-24T00:27:38.550Z,18.70
2018-08-24T00:30:12.988Z,18.80
2018-08-24T00:32:47.555Z,18.70
2018-08-24T00:35:21.832Z,18.60
2018-08-24T00:37:56.275Z,18.40
2018-08-24T00:40:30.614Z,18.50
2018-08-24T00:43:05.028Z,18.00
2018-08-24T00:45:39.329Z,18.20
2018-08-24T00:48:13.722Z,18.20
2018-08-24T00:50:48.167Z,18.30
2018-08-24T00:53:22.567Z,18.30
2018-08-24T00:55:56.935Z,18.20
2018-08-24T00:58:31.196Z,18.30
2018-08-24T01:01:06.251Z,18.30
2018-08-24T01:03:40.696Z,18.20
2018-08-24T01:06:17.503Z,18.10
2018-08-24T01:08:51.890Z,18.20
2018-08-24T01:11:31.599Z,18.00
2018-08-24T01:14:06.139Z,18.00
2018-08-24T01:16:46.141Z,18.00
2018-08-24T01:19:20.374Z,18.00
2018-08-24T01:21:54.814Z,18.00
2018-08-24T01:24:30.695Z,18.00
2018-08-24T01:27:06.211Z,18.00
2018-08-24T01:29:41.582Z,18.10
2018-08-24T01:32:15.964Z,18.10
2018-08-24T01:34:50.442Z,18.00
2018-08-24T01:37:24.876Z,18.00
2018-08-24T01:39:59.258Z,18.20
2018-08-24T01:42:33.647Z,18.10
2018-08-24T01:45:08.021Z,18.10
2018-08-24T01:47:42.263Z,18.10
2018-08-24T01:50:16.714Z,18.00
2018-08-24T01:52:51.055Z,18.00
2018-08-24T01:55:25.416Z,17.90
2018-08-24T01:57:59.847Z,18.00
2018-08-24T02:00:34.743Z,18.00
2018-08-24T02:03:09.215Z,18.10
2018-08-24T02:05:43.659Z,18.20
2018-08-24T02:08:18.143Z,18.20
2018-08-24T02:10:52.559Z,18.20
2018-08-24T02:13:32.416Z,18.20
2018-08-24T02:16:06.832Z,18.20
2018-08-24T02:18:46.771Z,18.10
2018-08-24T02:21:26.593Z,18.00
2018-08-24T02:24:01.043Z,17.90
2018-08-24T02:26:35.483Z,18.10
2018-08-24T02:29:09.730Z,18.30
2018-08-24T02:31:48.972Z,18.30
2018-08-24T02:34:23.431Z,18.30
2018-08-24T02:36:57.854Z,18.30
2018-08-24T02:39:32.115Z,18.30
2018-08-24T02:42:06.354Z,17.90
2018-08-24T02:44:40.763Z,17.70
2018-08-24T02:47:15.110Z,17.60
2018-08-24T02:49:49.503Z,17.80
2018-08-24T02:52:23.900Z,18.00
2018-08-24T02:54:58.297Z,18.10
2018-08-24T02:57:32.848Z,18.20
2018-08-24T03:00:07.195Z,18.30
2018-08-24T03:02:41.544Z,18.40
2018-08-24T03:05:16.002Z,18.30
2018-08-24T03:07:50.328Z,18.30
2018-08-24T03:10:24.725Z,18.20
2018-08-24T03:12:59.047Z,18.00
2018-08-24T03:15:33.358Z,18.10
2018-08-24T03:18:07.618Z,18.10
2018-08-24T03:20:41.929Z,18.20
2018-08-24T03:23:16.147Z,18.10
2018-08-24T03:25:50.591Z,17.80
2018-08-24T03:28:24.970Z,17.80
2018-08-24T03:30:59.462Z,17.80
2018-08-24T03:33:33.859Z,17.80
2018-08-24T03:36:08.090Z,17.80
2018-08-24T03:38:42.539Z,17.70
2018-08-24T03:41:16.912Z,17.90
2018-08-24T03:43:51.222Z,17.80
2018-08-24T03:46:25.478Z,17.90
2018-08-24T03:48:59.803Z,17.50
2018-08-24T03:51:34.204Z,17.10
2018-08-24T03:54:18.750Z,17.30
2018-08-24T03:56:57.119Z,17.40
2018-08-24T03:59:31.363Z,17.50
2018-08-24T04:02:08.623Z,17.60
2018-08-24T04:04:42.979Z,17.50
2018-08-24T04:07:17.344Z,16.80
2018-08-24T04:09:51.747Z,17.00
2018-08-24T04:12:25.978Z,16.70
2018-08-24T04:15:00.295Z,16.90
2018-08-24T04:17:44.854Z,16.90
2018-08-24T04:20:19.215Z,17.20
2018-08-24T04:22:53.611Z,17.30
2018-08-24T04:25:28.087Z,17.50
2018-08-24T04:28:02.516Z,17.60
2018-08-24T04:30:36.833Z,17.50
2018-08-24T04:33:11.147Z,17.60
2018-08-24T04:35:45.547Z,17.70
2018-08-24T04:38:19.959Z,17.80
2018-08-24T04:40:54.281Z,17.80
2018-08-24T04:43:28.603Z,17.80
2018-08-24T04:46:03.036Z,17.80
2018-08-24T04:48:37.319Z,17.90
2018-08-24T04:51:11.906Z,18.00
2018-08-24T04:53:46.260Z,18.00
2018-08-24T04:56:20.582Z,18.00
2018-08-24T04:58:54.899Z,18.00
2018-08-24T05:01:29.379Z,17.90
2018-08-24T05:04:03.797Z,17.50
2018-08-24T05:06:38.292Z,17.50
2018-08-24T05:09:12.699Z,17.50
2018-08-24T05:11:47.116Z,17.70
2018-08-24T05:14:21.401Z,17.80
2018-08-24T05:16:55.680Z,17.80
2018-08-24T05:19:30.054Z,17.80
2018-08-24T05:22:04.385Z,17.80
2018-08-24T05:24:38.779Z,17.80
2018-08-24T05:27:13.078Z,18.00
2018-08-24T05:29:47.345Z,17.90
2018-08-24T05:32:21.928Z,17.50
2018-08-24T05:34:56.428Z,16.90
2018-08-24T05:37:30.677Z,16.80
2018-08-24T05:40:04.981Z,16.60
2018-08-24T05:42:39.260Z,16.80
2018-08-24T05:45:13.552Z,17.00
2018-08-24T05:47:47.904Z,17.00
2018-08-24T05:50:22.203Z,17.20
2018-08-24T05:52:56.560Z,17.20
2018-08-24T05:55:30.893Z,17.30
2018-08-24T05:58:05.454Z,17.50
2018-08-24T06:00:41.147Z,17.60
2018-08-24T06:03:15.580Z,17.70
2018-08-24T06:05:55.357Z,17.70
2018-08-24T06:08:30.442Z,17.60
2018-08-24T06:11:04.754Z,17.10
2018-08-24T06:13:39.080Z,17.30
2018-08-24T06:16:13.495Z,17.60
2018-08-24T06:18:47.934Z,17.90
2018-08-24T06:21:22.327Z,17.50
2018-08-24T06:23:56.715Z,17.70
2018-08-24T06:26:31.107Z,17.80
2018-08-24T06:29:05.373Z,18.00
2018-08-24T06:31:39.800Z,18.10
2018-08-24T06:34:14.285Z,18.00
2018-08-24T06:36:48.641Z,18.20
2018-08-24T06:39:23.100Z,18.40
2018-08-24T06:41:57.560Z,18.40
2018-08-24T06:44:31.980Z,18.50
2018-08-24T06:47:06.060Z,18.70
2018-08-24T06:49:40.404Z,18.60
2018-08-24T06:52:14.815Z,18.30
2018-08-24T06:54:49.136Z,18.20
2018-08-24T06:57:23.602Z,18.40
2018-08-24T06:59:57.924Z,18.70
2018-08-24T07:02:32.172Z,19.10
2018-08-24T07:05:06.824Z,19.20
2018-08-24T07:07:41.237Z,19.50
2018-08-24T07:10:15.487Z,19.70
2018-08-24T07:12:49.865Z,19.30
2018-08-24T07:15:24.158Z,19.10
2018-08-24T07:18:00.338Z,19.20
2018-08-24T07:20:34.636Z,19.50
2018-08-24T07:23:09.012Z,19.70
2018-08-24T07:25:43.332Z,19.70
2018-08-24T07:28:17.584Z,19.70
2018-08-24T07:30:52.033Z,19.90
2018-08-24T07:33:26.424Z,19.90
2018-08-24T07:36:00.742Z,19.60
2018-08-24T07:38:35.187Z,19.40
2018-08-24T07:41:09.605Z,19.60
2018-08-24T07:43:43.931Z,19.70
2018-08-24T07:46:18.198Z,19.80
2018-08-24T07:48:52.544Z,20.10
2018-08-24T07:51:26.938Z,20.20
2018-08-24T07:54:01.283Z,20.10
2018-08-24T07:56:35.735Z,20.00
2018-08-24T07:59:10.523Z,19.90
2018-08-24T08:01:44.914Z,19.80
2018-08-24T08:04:19.311Z,20.10
2018-08-24T08:06:53.663Z,20.30
2018-08-24T08:09:28.108Z,20.50
2018-08-24T08:12:02.490Z,20.80
2018-08-24T08:14:36.930Z,21.00
2018-08-24T08:17:11.396Z,21.10
2018-08-24T08:19:45.683Z,21.10
2018-08-24T08:22:19.946Z,21.40
2018-08-24T08:24:54.207Z,21.10
2018-08-24T08:27:28.576Z,21.40
2018-08-24T08:30:05.070Z,21.50
2018-08-24T08:32:39.446Z,21.50
2018-08-24T08:35:13.932Z,21.40
2018-08-24T08:37:48.316Z,21.20
2018-08-24T08:40:22.562Z,21.20
2018-08-24T08:42:56.919Z,21.20
2018-08-24T08:45:31.317Z,21.50
2018-08-24T08:48:05.655Z,21.50
2018-08-24T08:50:39.994Z,21.60
2018-08-24T08:53:14.384Z,21.80
2018-08-24T08:55:48.788Z,21.70
2018-08-24T08:58:23.304Z,21.80
2018-08-24T09:00:57.700Z,21.80
2018-08-24T09:03:32.093Z,22.00
2018-08-24T09:06:06.375Z,21.80
2018-08-24T09:08:40.726Z,21.60
2018-08-24T09:11:15.066Z,21.80
2018-08-24T09:13:49.328Z,21.90
2018-08-24T09:16:23.719Z,21.70
2018-08-24T09:19:03.484Z,21.70
2018-08-24T09:21:43.295Z,21.50
2018-08-24T09:24:22.972Z,21.60
2018-08-24T09:27:02.634Z,21.50
2018-08-24T09:29:37.047Z,21.50
2018-08-24T09:32:11.371Z,21.30
2018-08-24T09:34:45.651Z,21.20
2018-08-24T09:37:25.519Z,21.10
2018-08-24T09:39:59.951Z,21.30
2018-08-24T09:42:34.532Z,21.20
2018-08-24T09:45:09.023Z,21.10
2018-08-24T09:47:48.772Z,21.30
2018-08-24T09:50:28.459Z,21.50
2018-08-24T09:53:08.247Z,21.60
2018-08-24T09:55:42.659Z,21.50
2018-08-24T09:58:17.023Z,21.20
2018-08-24T10:00:56.923Z,21.40
2018-08-24T10:03:36.779Z,21.50
2018-08-24T10:06:16.416Z,21.50
2018-08-24T10:08:50.975Z,21.40
2018-08-24T10:11:25.371Z,21.40
2018-08-24T10:13:59.786Z,21.50
2018-08-24T10:16:34.318Z,21.40
2018-08-24T10:19:13.931Z,21.30
2018-08-24T10:21:48.432Z,21.40
2018-08-24T10:24:22.799Z,21.10
2018-08-24T10:26:57.223Z,21.10
2018-08-24T10:29:31.640Z,21.20
2018-08-24T10:32:05.962Z,21.20
2018-08-24T10:34:40.417Z,21.30
2018-08-24T10:37:14.708Z,21.40
2018-08-24T10:39:49.029Z,21.40
2018-08-24T10:42:23.448Z,21.40
2018-08-24T10:44:57.835Z,21.40
2018-08-24T10:47:32.124Z,21.40
2018-08-24T10:50:06.489Z,21.40
2018-08-24T10:52:40.899Z,21.40
2018-08-24T10:55:15.353Z,21.40
2018-08-24T10:57:49.623Z,21.20
2018-08-24T11:00:23.987Z,21.30
2018-08-24T11:02:58.408Z,21.20
2018-08-24T11:05:33.097Z,21.20
2018-08-24T11:08:07.410Z,21.30
2018-08-24T11:10:41.814Z,21.20
2018-08-24T11:13:16.331Z,21.40
2018-08-24T11:15:51.573Z,21.40
2018-08-24T11:18:25.975Z,21.40
2018-08-24T11:21:00.409Z,21.30
2018-08-24T11:23:34.747Z,21.20
2018-08-24T11:26:09.202Z,21.00
2018-08-24T11:28:43.649Z,21.20
2018-08-24T11:31:18.102Z,21.10
2018-08-24T11:33:52.536Z,21.00
2018-08-24T11:36:26.878Z,20.70
2018-08-24T11:39:01.057Z,20.50
2018-08-24T11:41:35.625Z,20.50
2018-08-24T11:44:10.009Z,20.50
2018-08-24T11:46:44.336Z,20.60
2018-08-24T11:49:18.683Z,20.60
2018-08-24T11:51:52.979Z,20.70
2018-08-24T11:54:27.401Z,20.60
2018-08-24T11:57:01.684Z,20.60
2018-08-24T11:59:36.134Z,20.80
2018-08-24T12:02:10.954Z,21.10
2018-08-24T12:04:45.264Z,21.10
2018-08-24T12:07:19.559Z,21.20
2018-08-24T12:09:53.955Z,21.60
2018-08-24T12:12:28.288Z,21.60
2018-08-24T12:15:02.572Z,21.70
2018-08-24T12:17:37.724Z,21.80
2018-08-24T12:20:12.034Z,21.90
2018-08-24T12:22:46.315Z,22.10
2018-08-24T12:25:20.650Z,22.00
2018-08-24T12:27:55.011Z,22.20
2018-08-24T12:30:29.287Z,22.10
2018-08-24T12:33:03.580Z,21.90
2018-08-24T12:35:37.869Z,21.90
2018-08-24T12:38:12.250Z,21.90
2018-08-24T12:40:46.603Z,22.30
2018-08-24T12:43:20.903Z,22.10
2018-08-24T12:45:55.083Z,22.50
2018-08-24T12:48:29.475Z,21.90
2018-08-24T12:51:03.772Z,22.20
2018-08-24T12:53:38.100Z,22.20
2018-08-24T12:56:17.978Z,22.70
2018-08-24T12:58:52.943Z,23.00
2018-08-24T13:01:27.303Z,22.80
2018-08-24T13:04:01.700Z,22.20
2018-08-24T13:06:35.949Z,22.40
2018-08-24T13:09:10.184Z,22.40
2018-08-24T13:11:44.555Z,22.40
2018-08-24T13:14:18.811Z,22.30
2018-08-24T13:16:53.137Z,21.90
2018-08-24T13:19:27.467Z,21.60
2018-08-24T13:22:01.835Z,21.70
2018-08-24T13:24:36.102Z,21.80
2018-08-24T13:27:10.583Z,21.60
2018-08-24T13:29:44.838Z,21.60
2018-08-24T13:32:19.307Z,21.60
2018-08-24T13:34:53.559Z,21.30
2018-08-24T13:37:27.867Z,21.40
2018-08-24T13:40:02.335Z,21.70
2018-08-24T13:42:36.674Z,21.90
2018-08-24T13:45:11.020Z,21.80
2018-08-24T13:47:45.325Z,21.80
2018-08-24T13:50:19.907Z,22.00
2018-08-24T13:52:54.359Z,21.70
2018-08-24T13:55:28.676Z,22.00
2018-08-24T13:58:03.076Z,22.30
2018-08-24T14:00:37.604Z,22.00
2018-08-24T14:03:11.827Z,22.00
2018-08-24T14:05:46.293Z,22.30
2018-08-24T14:08:20.785Z,22.60
2018-08-24T14:10:55.035Z,22.50
2018-08-24T14:13:29.507Z,22.70
2018-08-24T14:16:03.802Z,23.00
2018-08-24T14:18:38.082Z,23.30
2018-08-24T14:21:12.402Z,23.60
2018-08-24T14:23:46.892Z,23.70
2018-08-24T14:26:21.512Z,23.20
2018-08-24T14:28:56.199Z,22.80
2018-08-24T14:31:30.721Z,23.00
2018-08-24T14:34:05.095Z,23.10
2018-08-24T14:36:39.597Z,22.80
2018-08-24T14:39:14.079Z,22.70
2018-08-24T14:41:48.471Z,23.00
2018-08-24T14:44:22.807Z,22.80
2018-08-24T14:46:57.070Z,23.00
2018-08-24T14:49:31.524Z,23.10
2018-08-24T14:52:05.762Z,23.30
2018-08-24T14:54:40.124Z,23.40
2018-08-24T14:57:14.627Z,23.30
2018-08-24T14:59:49.087Z,23.10
2018-08-24T15:02:23.663Z,22.40
2018-08-24T15:04:58.093Z,22.10
2018-08-24T15:07:32.439Z,22.10
2018-08-24T15:10:07.084Z,21.90
2018-08-24T15:12:41.428Z,21.90
2018-08-24T15:15:15.777Z,21.90
2018-08-24T15:17:50.065Z,22.10
2018-08-24T15:20:24.402Z,21.70
2018-08-24T15:22:58.983Z,21.60
2018-08-24T15:25:33.394Z,21.40
2018-08-24T15:28:07.806Z,21.40
2018-08-24T15:30:42.115Z,21.50
2018-08-24T15:33:16.483Z,21.40
2018-08-24T15:35:50.887Z,21.40
2018-08-24T15:38:25.162Z,21.40
2018-08-24T15:40:59.590Z,21.50
2018-08-24T15:43:34.036Z,21.60
2018-08-24T15:46:08.599Z,21.60
2018-08-24T15:48:42.882Z,21.60
2018-08-24T15:51:17.471Z,21.50
2018-08-24T15:53:51.754Z,21.50
2018-08-24T15:56:26.203Z,21.70
2018-08-24T15:59:00.634Z,21.80
2018-08-24T16:01:35.144Z,21.80
2018-08-24T16:04:09.604Z,21.90
2018-08-24T16:06:44.044Z,21.60
2018-08-24T16:09:18.324Z,21.30
2018-08-24T16:11:52.607Z,20.90
2018-08-24T16:14:27.061Z,20.80
2018-08-24T16:17:01.415Z,20.60
2018-08-24T16:19:35.717Z,20.50
2018-08-24T16:22:10.131Z,20.20
2018-08-24T16:24:44.471Z,20.10
2018-08-24T16:27:22.857Z,20.00
2018-08-24T16:29:57.532Z,20.10
2018-08-24T16:32:31.877Z,19.90
2018-08-24T16:35:06.539Z,19.70
2018-08-24T16:37:40.984Z,19.50
2018-08-24T16:40:15.466Z,19.40
2018-08-24T16:42:49.994Z,19.40
2018-08-24T16:45:24.321Z,19.40
2018-08-24T16:47:58.680Z,19.40
2018-08-24T16:50:33.026Z,19.40
2018-08-24T16:53:07.410Z,19.40
2018-08-24T16:55:41.882Z,19.20
2018-08-24T16:58:16.332Z,19.10
2018-08-24T17:00:50.624Z,19.10
2018-08-24T17:03:25.010Z,18.90
2018-08-24T17:05:59.549Z,18.70
2018-08-24T17:08:33.842Z,18.70
2018-08-24T17:11:08.180Z,18.70
2018-08-24T17:13:42.602Z,18.50
2018-08-24T17:16:17.027Z,18.40
2018-08-24T17:18:51.436Z,18.20
2018-08-24T17:21:25.864Z,18.30
2018-08-24T17:24:00.279Z,18.30
2018-08-24T17:26:34.696Z,18.30
2018-08-24T17:29:09.347Z,18.10
2018-08-24T17:31:43.887Z,17.80
2018-08-24T17:34:18.354Z,17.70
2018-08-24T17:36:52.799Z,17.60
2018-08-24T17:39:27.251Z,17.50
2018-08-24T17:42:01.666Z,17.50
2018-08-24T17:44:36.047Z,17.40
2018-08-24T17:47:10.625Z,17.10
2018-08-24T17:49:45.158Z,17.00
2018-08-24T17:52:19.637Z,17.10
2018-08-24T17:54:54.394Z,16.80
2018-08-24T17:57:28.703Z,17.00
2018-08-24T18:00:03.011Z,17.00
2018-08-24T18:02:37.288Z,17.10
2018-08-24T18:05:11.721Z,17.10
2018-08-24T18:07:46.067Z,17.10
2018-08-24T18:10:20.560Z,16.90
2018-08-24T18:12:54.978Z,16.80
2018-08-24T18:15:29.407Z,16.80
2018-08-24T18:18:03.866Z,16.90
2018-08-24T18:20:38.340Z,16.80
2018-08-24T18:23:12.703Z,16.80
2018-08-24T18:25:47.063Z,16.80
2018-08-24T18:28:21.350Z,16.70
2018-08-24T18:30:55.790Z,16.80
2018-08-24T18:33:30.278Z,16.90
2018-08-24T18:36:04.770Z,17.10
2018-08-24T18:38:39.195Z,17.00
2018-08-24T18:41:13.432Z,16.80
2018-08-24T18:43:47.699Z,16.80
2018-08-24T18:46:21.952Z,16.80
2018-08-24T18:48:56.399Z,16.40
2018-08-24T18:51:30.945Z,15.90
2018-08-24T18:54:05.465Z,16.10
2018-08-24T18:56:39.843Z,16.30
2018-08-24T18:59:13.950Z,16.40
2018-08-24T19:01:48.332Z,16.20
2018-08-24T19:04:22.635Z,16.50
2018-08-24T19:06:57.015Z,16.70
2018-08-24T19:09:31.382Z,16.50
2018-08-24T19:12:11.112Z,16.20
2018-08-24T19:14:45.483Z,16.50
2018-08-24T19:17:26.062Z,16.60
2018-08-24T19:20:05.888Z,16.60
2018-08-24T19:22:42.880Z,16.70
2018-08-24T19:25:17.228Z,16.70
2018-08-24T19:27:56.989Z,16.70
2018-08-24T19:30:34.250Z,16.60
2018-08-24T19:33:08.802Z,16.30
2018-08-24T19:35:43.183Z,16.40
2018-08-24T19:38:17.462Z,16.20
2018-08-24T19:40:57.182Z,16.30
2018-08-24T19:43:31.572Z,16.30
2018-08-24T19:46:06.073Z,16.40
2018-08-24T19:48:45.703Z,16.50
2018-08-24T19:51:20.000Z,16.60
2018-08-24T19:53:54.535Z,16.80
2018-08-24T19:56:28.911Z,16.70
2018-08-24T19:59:05.924Z,16.80
2018-08-24T20:01:40.343Z,16.80
2018-08-24T20:04:14.634Z,16.80
2018-08-24T20:06:54.387Z,16.80
2018-08-24T20:09:34.242Z,16.80
2018-08-24T20:12:08.658Z,16.80
2018-08-24T20:14:48.210Z,16.70
2018-08-24T20:17:27.642Z,16.50
2018-08-24T20:20:02.099Z,16.70
2018-08-24T20:22:36.412Z,16.30
2018-08-24T20:25:10.729Z,16.30
2018-08-24T20:27:45.165Z,16.10
2018-08-24T20:30:19.495Z,15.30
2018-08-24T20:32:53.855Z,15.20
2018-08-24T20:35:28.271Z,14.90
2018-08-24T20:38:02.682Z,15.40
2018-08-24T20:40:36.994Z,15.20
2018-08-24T20:43:11.354Z,15.40
2018-08-24T20:45:45.804Z,15.30
2018-08-24T20:48:20.255Z,15.20
2018-08-24T20:50:54.566Z,14.70
2018-08-24T20:53:28.856Z,14.50
2018-08-24T20:56:03.143Z,14.70
2018-08-24T20:58:37.548Z,14.70
2018-08-24T21:01:11.843Z,15.10
2018-08-24T21:03:46.354Z,14.90
2018-08-24T21:06:20.907Z,15.00
2018-08-24T21:08:55.515Z,15.40
2018-08-24T21:11:29.935Z,15.10
2018-08-24T21:14:04.487Z,15.40
2018-08-24T21:16:38.757Z,15.70
2018-08-24T21:19:13.167Z,15.70
2018-08-24T21:21:47.425Z,15.80
2018-08-24T21:24:21.840Z,15.50
2018-08-24T21:26:56.303Z,15.60
2018-08-24T21:29:30.780Z,14.90
2018-08-24T21:32:05.239Z,14.40
2018-08-24T21:34:39.838Z,14.10
2018-08-24T21:37:14.138Z,14.00
2018-08-24T21:39:48.674Z,13.80
2018-08-24T21:42:23.224Z,13.90
2018-08-24T21:44:57.707Z,13.90
2018-08-24T21:47:32.235Z,13.80
2018-08-24T21:50:06.530Z,13.90
2018-08-24T21:52:40.869Z,13.80
2018-08-24T21:55:15.144Z,14.00
2018-08-24T21:57:49.513Z,14.40
2018-08-24T22:00:24.376Z,14.50
2018-08-24T22:02:58.699Z,14.30
2018-08-24T22:05:33.067Z,14.10
2018-08-24T22:08:07.541Z,14.30
2018-08-24T22:10:41.990Z,14.30
2018-08-24T22:13:16.241Z,14.20
2018-08-24T22:15:50.688Z,14.20
2018-08-24T22:18:25.023Z,14.00
2018-08-24T22:20:59.683Z,14.30
2018-08-24T22:23:33.975Z,14.50
2018-08-24T22:26:08.428Z,14.30
2018-08-24T22:28:42.802Z,14.50
2018-08-24T22:31:17.262Z,14.40
2018-08-24T22:33:51.547Z,14.70
2018-08-24T22:36:26.051Z,14.60
2018-08-24T22:39:00.468Z,14.70
2018-08-24T22:41:34.767Z,14.20
2018-08-24T22:44:09.088Z,14.20
2018-08-24T22:46:43.580Z,14.50
2018-08-24T22:49:17.992Z,14.60
2018-08-24T22:51:52.421Z,14.70
2018-08-24T22:54:26.690Z,14.90
2018-08-24T22:57:01.007Z,14.70
2018-08-24T22:59:35.319Z,14.70
2018-08-24T23:02:09.584Z,14.60
2018-08-24T23:04:43.896Z,14.30
2018-08-24T23:07:18.227Z,14.30
2018-08-24T23:09:52.655Z,13.90
2018-08-24T23:12:27.067Z,14.10
2018-08-24T23:15:01.372Z,14.20
2018-08-24T23:17:35.667Z,14.50
2018-08-24T23:20:09.987Z,14.70
2018-08-24T23:22:44.343Z,14.70
2018-08-24T23:25:18.592Z,14.90
2018-08-24T23:27:53.064Z,15.00
2018-08-24T23:30:27.419Z,15.00
2018-08-24T23:33:01.803Z,14.80
2018-08-24T23:35:36.329Z,14.90
2018-08-24T23:38:10.704Z,15.00
2018-08-24T23:40:45.147Z,15.10
2018-08-24T23:43:19.478Z,14.80
2018-08-24T23:45:53.791Z,14.70
2018-08-24T23:48:28.227Z,14.90
2018-08-24T23:51:02.491Z,15.10
2018-08-24T23:53:36.920Z,15.20
2018-08-24T23:56:11.228Z,15.30
2018-08-24T23:58:45.712Z,15.40
